Belchatow, Poland
Current Conditions -  °F | °C
As of 6:00 PM on Thursday 23 Oct 2014 (Local Time) from EPLL Reporting Station
Broken Clouds Broken Clouds  
Wind Chill: 36°   Ceiling: 1600
Heat Index: 41°   Visibility: 6mi
Dew Point: 34°   Wind: 8mph
Humidity: 76%   Direction: 50°NE
Pressure: 30.18"   Gusts: NA
Location:  51.37°N, 19.36°E
Report Text: EPLL 231600Z 05007KT 9999 BKN016 05/01 Q1022
Loading
Personal Weather Stations






























Interactive Weather Map
Tropical Storm Tracking
New forecast layout! Learn more

10-Day Weather Forecast

Advertisements
Track Severe Weather on mobile